sensor_id;sensor_type;location;lat;lon;timestamp;temperature;humidity
15991;DHT22;8100;50.994;4.538;2023-08-01T00:01:26;17.20;99.90
15991;DHT22;8100;50.994;4.538;2023-08-01T00:04:13;16.20;99.90
15991;DHT22;8100;50.994;4.538;2023-08-01T00:07:03;15.90;99.90
15991;DHT22;8100;50.994;4.538;2023-08-01T00:09:51;17.20;99.90
15991;DHT22;8100;50.994;4.538;2023-08-01T00:12:38;16.80;99.90
15991;DHT22;8100;50.994;4.538;2023-08-01T00:15:25;17.00;99.90
15991;DHT22;8100;50.994;4.538;2023-08-01T00:18:13;16.50;99.90
15991;DHT22;8100;50.994;4.538;2023-08-01T00:21:00;16.80;99.90
15991;DHT22;8100;50.994;4.538;2023-08-01T00:23:49;16.30;99.90
15991;DHT22;8100;50.994;4.538;2023-08-01T00:26:37;15.50;99.90
15991;DHT22;8100;50.994;4.538;2023-08-01T00:29:24;16.90;99.90
15991;DHT22;8100;50.994;4.538;2023-08-01T00:32:12;16.50;99.90
15991;DHT22;8100;50.994;4.538;2023-08-01T00:34:59;16.80;99.90
15991;DHT22;8100;50.994;4.538;2023-08-01T00:37:46;16.40;99.90
15991;DHT22;8100;50.994;4.538;2023-08-01T00:40:35;15.80;99.90
15991;DHT22;8100;50.994;4.538;2023-08-01T00:43:22;16.40;99.90
15991;DHT22;8100;50.994;4.538;2023-08-01T00:46:10;15.50;99.90
15991;DHT22;8100;50.994;4.538;2023-08-01T00:48:57;16.60;99.90
15991;DHT22;8100;50.994;4.538;2023-08-01T00:51:46;16.40;99.90
15991;DHT22;8100;50.994;4.538;2023-08-01T00:54:34;16.30;99.90
15991;DHT22;8100;50.994;4.538;2023-08-01T00:57:24;16.60;99.90
15991;DHT22;8100;50.994;4.538;2023-08-01T01:00:12;15.20;99.90
15991;DHT22;8100;50.994;4.538;2023-08-01T01:02:59;16.60;99.90
15991;DHT22;8100;50.994;4.538;2023-08-01T01:05:52;16.40;99.90
15991;DHT22;8100;50.994;4.538;2023-08-01T01:08:40;15.90;99.90
15991;DHT22;8100;50.994;4.538;2023-08-01T01:11:27;15.70;99.90
15991;DHT22;8100;50.994;4.538;2023-08-01T01:14:16;15.60;99.90
15991;DHT22;8100;50.994;4.538;2023-08-01T01:17:03;16.40;99.90
15991;DHT22;8100;50.994;4.538;2023-08-01T01:19:51;15.40;99.90
15991;DHT22;8100;50.994;4.538;2023-08-01T01:22:41;15.30;99.90
15991;DHT22;8100;50.994;4.538;2023-08-01T01:25:30;15.50;99.90
15991;DHT22;8100;50.994;4.538;2023-08-01T01:28:18;15.70;99.90
15991;DHT22;8100;50.994;4.538;2023-08-01T01:31:06;16.40;99.90
15991;DHT22;8100;50.994;4.538;2023-08-01T01:33:54;15.90;99.90
15991;DHT22;8100;50.994;4.538;2023-08-01T01:36:42;16.40;99.90
15991;DHT22;8100;50.994;4.538;2023-08-01T01:39:30;15.80;99.90
15991;DHT22;8100;50.994;4.538;2023-08-01T01:42:18;15.40;99.90
15991;DHT22;8100;50.994;4.538;2023-08-01T01:45:06;15.60;99.90
15991;DHT22;8100;50.994;4.538;2023-08-01T01:47:53;15.60;99.90
15991;DHT22;8100;50.994;4.538;2023-08-01T01:50:40;15.30;99.90
15991;DHT22;8100;50.994;4.538;2023-08-01T01:53:28;15.70;99.90
15991;DHT22;8100;50.994;4.538;2023-08-01T01:56:16;15.70;99.90
15991;DHT22;8100;50.994;4.538;2023-08-01T01:59:04;15.40;99.90
15991;DHT22;8100;50.994;4.538;2023-08-01T02:01:51;15.50;99.90
15991;DHT22;8100;50.994;4.538;2023-08-01T02:04:38;16.20;99.90
15991;DHT22;8100;50.994;4.538;2023-08-01T02:07:25;15.70;99.90
15991;DHT22;8100;50.994;4.538;2023-08-01T02:10:12;15.60;99.90
15991;DHT22;8100;50.994;4.538;2023-08-01T02:13:01;16.20;99.90
15991;DHT22;8100;50.994;4.538;2023-08-01T02:15:48;15.70;99.90
15991;DHT22;8100;50.994;4.538;2023-08-01T02:18:36;15.40;99.90
15991;DHT22;8100;50.994;4.538;2023-08-01T02:21:23;15.50;99.90
15991;DHT22;8100;50.994;4.538;2023-08-01T02:24:10;15.30;99.90
15991;DHT22;8100;50.994;4.538;2023-08-01T02:26:57;15.50;99.90
15991;DHT22;8100;50.994;4.538;2023-08-01T02:29:46;15.50;99.90
15991;DHT22;8100;50.994;4.538;2023-08-01T02:32:35;15.40;99.90
15991;DHT22;8100;50.994;4.538;2023-08-01T02:35:23;15.70;99.90
15991;DHT22;8100;50.994;4.538;2023-08-01T02:38:10;16.10;99.90
15991;DHT22;8100;50.994;4.538;2023-08-01T02:40:57;16.10;99.90
15991;DHT22;8100;50.994;4.538;2023-08-01T02:43:44;15.30;99.90
15991;DHT22;8100;50.994;4.538;2023-08-01T02:46:33;16.00;99.90
15991;DHT22;8100;50.994;4.538;2023-08-01T02:49:20;15.90;99.90
15991;DHT22;8100;50.994;4.538;2023-08-01T02:52:07;15.30;99.90
15991;DHT22;8100;50.994;4.538;2023-08-01T02:54:56;15.50;99.90
15991;DHT22;8100;50.994;4.538;2023-08-01T02:57:43;15.40;99.90
15991;DHT22;8100;50.994;4.538;2023-08-01T03:00:30;15.50;99.90
15991;DHT22;8100;50.994;4.538;2023-08-01T03:03:19;15.90;99.90
15991;DHT22;8100;50.994;4.538;2023-08-01T03:06:07;15.40;99.90
15991;DHT22;8100;50.994;4.538;2023-08-01T03:08:54;15.40;99.90
15991;DHT22;8100;50.994;4.538;2023-08-01T03:11:42;15.80;99.90
15991;DHT22;8100;50.994;4.538;2023-08-01T03:14:29;15.90;99.90
15991;DHT22;8100;50.994;4.538;2023-08-01T03:17:17;15.40;99.90
15991;DHT22;8100;50.994;4.538;2023-08-01T03:20:07;15.40;99.90
15991;DHT22;8100;50.994;4.538;2023-08-01T03:22:56;15.60;99.90
15991;DHT22;8100;50.994;4.538;2023-08-01T03:25:44;15.30;99.90
15991;DHT22;8100;50.994;4.538;2023-08-01T03:28:31;15.80;99.90
15991;DHT22;8100;50.994;4.538;2023-08-01T03:31:18;15.80;99.90
15991;DHT22;8100;50.994;4.538;2023-08-01T03:34:06;15.80;99.90
15991;DHT22;8100;50.994;4.538;2023-08-01T03:36:56;15.40;99.90
15991;DHT22;8100;50.994;4.538;2023-08-01T03:39:44;15.80;99.90
15991;DHT22;8100;50.994;4.538;2023-08-01T03:42:31;15.20;99.90
15991;DHT22;8100;50.994;4.538;2023-08-01T03:45:19;15.80;99.90
15991;DHT22;8100;50.994;4.538;2023-08-01T03:48:06;15.60;99.90
15991;DHT22;8100;50.994;4.538;2023-08-01T03:50:53;15.80;99.90
15991;DHT22;8100;50.994;4.538;2023-08-01T03:53:42;15.40;99.90
15991;DHT22;8100;50.994;4.538;2023-08-01T03:56:29;15.00;99.90
15991;DHT22;8100;50.994;4.538;2023-08-01T03:59:18;15.70;99.90
15991;DHT22;8100;50.994;4.538;2023-08-01T04:02:05;15.60;99.90
15991;DHT22;8100;50.994;4.538;2023-08-01T04:04:52;15.30;99.90
15991;DHT22;8100;50.994;4.538;2023-08-01T04:07:41;15.30;99.90
15991;DHT22;8100;50.994;4.538;2023-08-01T04:10:30;15.90;99.90
15991;DHT22;8100;50.994;4.538;2023-08-01T04:13:17;15.70;99.90
15991;DHT22;8100;50.994;4.538;2023-08-01T04:16:04;15.40;99.90
15991;DHT22;8100;50.994;4.538;2023-08-01T04:18:52;15.30;99.90
15991;DHT22;8100;50.994;4.538;2023-08-01T04:21:39;15.80;99.90
15991;DHT22;8100;50.994;4.538;2023-08-01T04:24:26;15.40;99.90
15991;DHT22;8100;50.994;4.538;2023-08-01T04:27:17;15.90;99.90
15991;DHT22;8100;50.994;4.538;2023-08-01T04:30:05;15.60;99.90
15991;DHT22;8100;50.994;4.538;2023-08-01T04:32:52;15.30;99.90
15991;DHT22;8100;50.994;4.538;2023-08-01T04:35:40;15.40;99.90
15991;DHT22;8100;50.994;4.538;2023-08-01T04:38:27;15.90;99.90
15991;DHT22;8100;50.994;4.538;2023-08-01T04:41:14;15.90;99.90
15991;DHT22;8100;50.994;4.538;2023-08-01T04:44:03;15.70;99.90
15991;DHT22;8100;50.994;4.538;2023-08-01T04:46:51;15.40;99.90
15991;DHT22;8100;50.994;4.538;2023-08-01T04:49:38;15.40;99.90
15991;DHT22;8100;50.994;4.538;2023-08-01T04:52:25;15.30;99.90
15991;DHT22;8100;50.994;4.538;2023-08-01T04:55:12;15.30;99.90
15991;DHT22;8100;50.994;4.538;2023-08-01T04:58:00;15.40;99.90
15991;DHT22;8100;50.994;4.538;2023-08-01T05:00:48;15.50;99.90
15991;DHT22;8100;50.994;4.538;2023-08-01T05:03:36;15.80;99.90
15991;DHT22;8100;50.994;4.538;2023-08-01T05:06:23;15.50;99.90
15991;DHT22;8100;50.994;4.538;2023-08-01T05:09:10;15.80;99.90
15991;DHT22;8100;50.994;4.538;2023-08-01T05:11:58;15.80;99.90
15991;DHT22;8100;50.994;4.538;2023-08-01T05:14:45;15.80;99.90
15991;DHT22;8100;50.994;4.538;2023-08-01T05:17:34;15.50;99.90
15991;DHT22;8100;50.994;4.538;2023-08-01T05:20:21;15.50;99.90
15991;DHT22;8100;50.994;4.538;2023-08-01T05:23:08;15.70;99.90
15991;DHT22;8100;50.994;4.538;2023-08-01T05:25:56;15.50;99.90
15991;DHT22;8100;50.994;4.538;2023-08-01T05:28:43;15.60;99.90
15991;DHT22;8100;50.994;4.538;2023-08-01T05:31:30;15.80;99.90
15991;DHT22;8100;50.994;4.538;2023-08-01T05:34:19;16.00;99.90
15991;DHT22;8100;50.994;4.538;2023-08-01T05:37:06;15.90;99.90
15991;DHT22;8100;50.994;4.538;2023-08-01T05:39:54;16.10;99.90
15991;DHT22;8100;50.994;4.538;2023-08-01T05:42:41;16.10;99.90
15991;DHT22;8100;50.994;4.538;2023-08-01T05:45:28;15.90;99.90
15991;DHT22;8100;50.994;4.538;2023-08-01T05:48:16;16.00;99.90
15991;DHT22;8100;50.994;4.538;2023-08-01T05:51:04;16.10;99.90
15991;DHT22;8100;50.994;4.538;2023-08-01T05:53:52;16.20;99.90
15991;DHT22;8100;50.994;4.538;2023-08-01T05:56:39;16.20;99.90
15991;DHT22;8100;50.994;4.538;2023-08-01T05:59:26;16.10;99.90
15991;DHT22;8100;50.994;4.538;2023-08-01T06:02:14;16.00;99.90
15991;DHT22;8100;50.994;4.538;2023-08-01T06:05:01;16.10;99.90
15991;DHT22;8100;50.994;4.538;2023-08-01T06:07:50;16.20;99.90
15991;DHT22;8100;50.994;4.538;2023-08-01T06:10:37;16.30;99.90
15991;DHT22;8100;50.994;4.538;2023-08-01T06:13:24;16.30;99.90
15991;DHT22;8100;50.994;4.538;2023-08-01T06:16:12;16.30;99.90
15991;DHT22;8100;50.994;4.538;2023-08-01T06:18:59;16.30;99.90
15991;DHT22;8100;50.994;4.538;2023-08-01T06:21:47;16.30;99.90
15991;DHT22;8100;50.994;4.538;2023-08-01T06:24:36;16.40;99.90
15991;DHT22;8100;50.994;4.538;2023-08-01T06:27:24;16.40;99.90
15991;DHT22;8100;50.994;4.538;2023-08-01T06:30:12;16.40;99.90
15991;DHT22;8100;50.994;4.538;2023-08-01T06:32:59;16.40;99.90
15991;DHT22;8100;50.994;4.538;2023-08-01T06:35:46;16.60;99.90
15991;DHT22;8100;50.994;4.538;2023-08-01T06:38:33;16.60;99.90
15991;DHT22;8100;50.994;4.538;2023-08-01T06:41:22;16.70;99.90
15991;DHT22;8100;50.994;4.538;2023-08-01T06:44:09;16.50;99.90
15991;DHT22;8100;50.994;4.538;2023-08-01T06:46:57;16.60;99.90
15991;DHT22;8100;50.994;4.538;2023-08-01T06:49:44;16.60;99.90
15991;DHT22;8100;50.994;4.538;2023-08-01T06:52:32;16.70;99.90
15991;DHT22;8100;50.994;4.538;2023-08-01T06:55:19;16.80;99.90
15991;DHT22;8100;50.994;4.538;2023-08-01T06:58:08;16.80;99.90
15991;DHT22;8100;50.994;4.538;2023-08-01T07:00:55;16.80;99.90
15991;DHT22;8100;50.994;4.538;2023-08-01T07:03:42;17.00;99.90
15991;DHT22;8100;50.994;4.538;2023-08-01T07:06:31;17.00;99.90
15991;DHT22;8100;50.994;4.538;2023-08-01T07:09:18;17.10;99.90
15991;DHT22;8100;50.994;4.538;2023-08-01T07:12:06;16.90;99.90
15991;DHT22;8100;50.994;4.538;2023-08-01T07:14:55;17.00;99.90
15991;DHT22;8100;50.994;4.538;2023-08-01T07:17:42;17.10;99.90
15991;DHT22;8100;50.994;4.538;2023-08-01T07:20:30;17.10;99.90
15991;DHT22;8100;50.994;4.538;2023-08-01T07:23:17;17.20;99.90
15991;DHT22;8100;50.994;4.538;2023-08-01T07:26:04;17.20;99.90
15991;DHT22;8100;50.994;4.538;2023-08-01T07:28:52;17.20;99.90
15991;DHT22;8100;50.994;4.538;2023-08-01T07:31:40;17.30;99.90
15991;DHT22;8100;50.994;4.538;2023-08-01T07:34:28;17.30;99.90
15991;DHT22;8100;50.994;4.538;2023-08-01T07:37:15;17.40;99.90
15991;DHT22;8100;50.994;4.538;2023-08-01T07:40:03;17.50;99.90
15991;DHT22;8100;50.994;4.538;2023-08-01T07:42:51;17.50;99.90
15991;DHT22;8100;50.994;4.538;2023-08-01T07:45:38;17.60;99.90
15991;DHT22;8100;50.994;4.538;2023-08-01T07:48:27;17.70;99.90
15991;DHT22;8100;50.994;4.538;2023-08-01T07:51:14;17.60;99.90
15991;DHT22;8100;50.994;4.538;2023-08-01T07:54:02;17.70;99.90
15991;DHT22;8100;50.994;4.538;2023-08-01T07:56:49;17.90;99.90
15991;DHT22;8100;50.994;4.538;2023-08-01T07:59:36;17.90;99.90
15991;DHT22;8100;50.994;4.538;2023-08-01T08:02:24;17.80;99.90
15991;DHT22;8100;50.994;4.538;2023-08-01T08:05:12;18.00;99.90
15991;DHT22;8100;50.994;4.538;2023-08-01T08:08:00;17.90;99.90
15991;DHT22;8100;50.994;4.538;2023-08-01T08:10:47;18.00;99.90
15991;DHT22;8100;50.994;4.538;2023-08-01T08:13:34;18.20;99.90
15991;DHT22;8100;50.994;4.538;2023-08-01T08:16:22;18.20;99.90
15991;DHT22;8100;50.994;4.538;2023-08-01T08:19:09;18.20;99.90
15991;DHT22;8100;50.994;4.538;2023-08-01T08:21:58;18.20;99.90
15991;DHT22;8100;50.994;4.538;2023-08-01T08:24:45;18.30;99.90
15991;DHT22;8100;50.994;4.538;2023-08-01T08:27:32;18.30;99.90
15991;DHT22;8100;50.994;4.538;2023-08-01T08:30:20;18.30;99.90
15991;DHT22;8100;50.994;4.538;2023-08-01T08:33:07;18.50;99.90
15991;DHT22;8100;50.994;4.538;2023-08-01T08:35:56;18.50;99.90
15991;DHT22;8100;50.994;4.538;2023-08-01T08:38:45;18.40;77.70
15991;DHT22;8100;50.994;4.538;2023-08-01T08:41:35;18.50;99.90
15991;DHT22;8100;50.994;4.538;2023-08-01T08:44:24;18.80;99.90
15991;DHT22;8100;50.994;4.538;2023-08-01T08:47:11;18.80;30.50
15991;DHT22;8100;50.994;4.538;2023-08-01T08:49:59;18.90;33.70
15991;DHT22;8100;50.994;4.538;2023-08-01T08:52:46;18.70;1.00
15991;DHT22;8100;50.994;4.538;2023-08-01T08:55:35;18.50;17.70
15991;DHT22;8100;50.994;4.538;2023-08-01T08:58:23;18.60;13.60
15991;DHT22;8100;50.994;4.538;2023-08-01T09:01:11;18.70;53.70
15991;DHT22;8100;50.994;4.538;2023-08-01T09:03:58;18.90;1.00
15991;DHT22;8100;50.994;4.538;2023-08-01T09:06:48;18.80;1.00
15991;DHT22;8100;50.994;4.538;2023-08-01T09:09:36;19.00;26.00
15991;DHT22;8100;50.994;4.538;2023-08-01T09:12:25;19.20;3.10
15991;DHT22;8100;50.994;4.538;2023-08-01T09:15:14;19.10;29.90
15991;DHT22;8100;50.994;4.538;2023-08-01T09:18:06;19.40;1.00
15991;DHT22;8100;50.994;4.538;2023-08-01T09:20:53;19.40;1.00
15991;DHT22;8100;50.994;4.538;2023-08-01T09:23:42;19.30;1.00
15991;DHT22;8100;50.994;4.538;2023-08-01T09:26:30;19.40;1.00
15991;DHT22;8100;50.994;4.538;2023-08-01T09:29:20;19.60;46.10
15991;DHT22;8100;50.994;4.538;2023-08-01T09:32:12;19.50;99.90
15991;DHT22;8100;50.994;4.538;2023-08-01T09:35:00;19.80;99.90
15991;DHT22;8100;50.994;4.538;2023-08-01T09:37:47;19.80;99.90
15991;DHT22;8100;50.994;4.538;2023-08-01T09:40:38;19.70;99.90
15991;DHT22;8100;50.994;4.538;2023-08-01T09:43:33;19.80;99.90
15991;DHT22;8100;50.994;4.538;2023-08-01T09:46:22;19.90;99.90
15991;DHT22;8100;50.994;4.538;2023-08-01T09:49:10;20.10;99.90
15991;DHT22;8100;50.994;4.538;2023-08-01T09:51:58;20.40;99.90
15991;DHT22;8100;50.994;4.538;2023-08-01T09:54:47;20.30;99.90
15991;DHT22;8100;50.994;4.538;2023-08-01T09:57:37;20.20;99.90
15991;DHT22;8100;50.994;4.538;2023-08-01T10:00:25;20.40;99.90
15991;DHT22;8100;50.994;4.538;2023-08-01T10:03:14;20.20;99.90
15991;DHT22;8100;50.994;4.538;2023-08-01T10:06:02;20.10;99.90
15991;DHT22;8100;50.994;4.538;2023-08-01T10:08:51;19.80;99.90
15991;DHT22;8100;50.994;4.538;2023-08-01T10:11:40;19.60;99.90
15991;DHT22;8100;50.994;4.538;2023-08-01T10:14:28;19.70;99.90
15991;DHT22;8100;50.994;4.538;2023-08-01T10:17:16;20.10;99.90
15991;DHT22;8100;50.994;4.538;2023-08-01T10:20:07;20.30;99.90
15991;DHT22;8100;50.994;4.538;2023-08-01T10:22:54;20.40;99.90
15991;DHT22;8100;50.994;4.538;2023-08-01T10:25:42;20.40;99.90
15991;DHT22;8100;50.994;4.538;2023-08-01T10:28:33;20.50;99.90
15991;DHT22;8100;50.994;4.538;2023-08-01T10:31:20;20.60;99.90
15991;DHT22;8100;50.994;4.538;2023-08-01T10:34:13;20.60;99.90
15991;DHT22;8100;50.994;4.538;2023-08-01T10:37:02;20.80;99.90
15991;DHT22;8100;50.994;4.538;2023-08-01T10:39:57;20.50;99.90
15991;DHT22;8100;50.994;4.538;2023-08-01T10:42:45;20.70;99.90
15991;DHT22;8100;50.994;4.538;2023-08-01T10:45:32;20.90;99.90
15991;DHT22;8100;50.994;4.538;2023-08-01T10:48:20;21.00;99.90
15991;DHT22;8100;50.994;4.538;2023-08-01T10:51:07;20.80;99.90
15991;DHT22;8100;50.994;4.538;2023-08-01T10:53:56;20.70;99.90
15991;DHT22;8100;50.994;4.538;2023-08-01T10:56:44;20.70;99.90
15991;DHT22;8100;50.994;4.538;2023-08-01T10:59:32;20.90;99.90
15991;DHT22;8100;50.994;4.538;2023-08-01T11:02:20;21.00;99.90
15991;DHT22;8100;50.994;4.538;2023-08-01T11:05:08;20.90;99.90
15991;DHT22;8100;50.994;4.538;2023-08-01T11:07:57;20.70;99.90
15991;DHT22;8100;50.994;4.538;2023-08-01T11:10:49;20.50;99.90
15991;DHT22;8100;50.994;4.538;2023-08-01T11:13:37;20.10;99.90
15991;DHT22;8100;50.994;4.538;2023-08-01T11:16:24;19.90;99.90
15991;DHT22;8100;50.994;4.538;2023-08-01T11:19:20;19.30;99.90
15991;DHT22;8100;50.994;4.538;2023-08-01T11:22:09;18.60;99.90
15991;DHT22;8100;50.994;4.538;2023-08-01T11:24:57;18.60;99.90
15991;DHT22;8100;50.994;4.538;2023-08-01T11:27:46;18.90;99.90
15991;DHT22;8100;50.994;4.538;2023-08-01T11:30:33;19.10;99.90
15991;DHT22;8100;50.994;4.538;2023-08-01T11:33:22;19.20;99.90
15991;DHT22;8100;50.994;4.538;2023-08-01T11:36:09;19.30;99.90
15991;DHT22;8100;50.994;4.538;2023-08-01T11:38:58;19.50;99.90
15991;DHT22;8100;50.994;4.538;2023-08-01T11:41:46;19.70;99.90
15991;DHT22;8100;50.994;4.538;2023-08-01T11:44:34;20.00;99.90
15991;DHT22;8100;50.994;4.538;2023-08-01T11:47:22;20.30;99.90
15991;DHT22;8100;50.994;4.538;2023-08-01T11:50:10;20.50;99.90
15991;DHT22;8100;50.994;4.538;2023-08-01T11:52:58;20.60;99.90
15991;DHT22;8100;50.994;4.538;2023-08-01T11:55:46;20.90;99.90
15991;DHT22;8100;50.994;4.538;2023-08-01T11:58:35;21.10;99.90
15991;DHT22;8100;50.994;4.538;2023-08-01T12:01:24;21.10;99.90
15991;DHT22;8100;50.994;4.538;2023-08-01T12:04:12;21.10;99.90
15991;DHT22;8100;50.994;4.538;2023-08-01T12:07:12;21.00;99.90
15991;DHT22;8100;50.994;4.538;2023-08-01T12:10:01;21.30;99.90
15991;DHT22;8100;50.994;4.538;2023-08-01T12:12:48;21.20;99.90
15991;DHT22;8100;50.994;4.538;2023-08-01T12:15:36;21.30;99.90
15991;DHT22;8100;50.994;4.538;2023-08-01T12:18:25;21.40;99.90
15991;DHT22;8100;50.994;4.538;2023-08-01T12:21:13;21.30;99.90
15991;DHT22;8100;50.994;4.538;2023-08-01T12:24:01;21.40;99.90
15991;DHT22;8100;50.994;4.538;2023-08-01T12:26:48;21.50;99.90
15991;DHT22;8100;50.994;4.538;2023-08-01T12:29:35;21.90;99.90
15991;DHT22;8100;50.994;4.538;2023-08-01T12:32:23;22.20;99.90
15991;DHT22;8100;50.994;4.538;2023-08-01T12:35:12;22.20;99.90
15991;DHT22;8100;50.994;4.538;2023-08-01T12:37:59;22.10;99.90
15991;DHT22;8100;50.994;4.538;2023-08-01T12:40:46;21.60;99.90
15991;DHT22;8100;50.994;4.538;2023-08-01T12:43:34;21.50;99.90
15991;DHT22;8100;50.994;4.538;2023-08-01T12:46:21;21.30;99.90
15991;DHT22;8100;50.994;4.538;2023-08-01T12:49:09;21.40;99.90
15991;DHT22;8100;50.994;4.538;2023-08-01T12:51:57;21.20;99.90
15991;DHT22;8100;50.994;4.538;2023-08-01T12:54:46;20.90;99.90
15991;DHT22;8100;50.994;4.538;2023-08-01T12:57:33;20.90;99.90
15991;DHT22;8100;50.994;4.538;2023-08-01T13:00:21;21.20;99.90
15991;DHT22;8100;50.994;4.538;2023-08-01T13:03:08;21.20;99.90
15991;DHT22;8100;50.994;4.538;2023-08-01T13:05:56;20.90;99.90
15991;DHT22;8100;50.994;4.538;2023-08-01T13:08:45;20.90;99.90
15991;DHT22;8100;50.994;4.538;2023-08-01T13:11:32;20.70;99.90
15991;DHT22;8100;50.994;4.538;2023-08-01T13:14:20;20.60;99.90
15991;DHT22;8100;50.994;4.538;2023-08-01T13:17:07;20.80;99.90
15991;DHT22;8100;50.994;4.538;2023-08-01T13:19:54;20.80;99.90
15991;DHT22;8100;50.994;4.538;2023-08-01T13:22:42;21.00;99.90
15991;DHT22;8100;50.994;4.538;2023-08-01T13:25:30;21.40;99.90
15991;DHT22;8100;50.994;4.538;2023-08-01T13:28:18;21.70;99.90
15991;DHT22;8100;50.994;4.538;2023-08-01T13:31:05;21.50;99.90
15991;DHT22;8100;50.994;4.538;2023-08-01T13:33:52;21.50;99.90
15991;DHT22;8100;50.994;4.538;2023-08-01T13:36:40;21.60;99.90
15991;DHT22;8100;50.994;4.538;2023-08-01T13:39:27;21.60;99.90
15991;DHT22;8100;50.994;4.538;2023-08-01T13:42:16;21.20;99.90
15991;DHT22;8100;50.994;4.538;2023-08-01T13:45:04;20.90;99.90
15991;DHT22;8100;50.994;4.538;2023-08-01T13:47:51;20.90;99.90
15991;DHT22;8100;50.994;4.538;2023-08-01T13:50:38;20.70;99.90
15991;DHT22;8100;50.994;4.538;2023-08-01T13:53:26;20.40;99.90
15991;DHT22;8100;50.994;4.538;2023-08-01T13:56:13;20.30;99.90
15991;DHT22;8100;50.994;4.538;2023-08-01T13:59:01;20.10;99.90
15991;DHT22;8100;50.994;4.538;2023-08-01T14:01:49;19.90;99.90
15991;DHT22;8100;50.994;4.538;2023-08-01T14:04:36;19.40;99.90
15991;DHT22;8100;50.994;4.538;2023-08-01T14:07:23;19.10;99.90
15991;DHT22;8100;50.994;4.538;2023-08-01T14:10:11;19.50;99.90
15991;DHT22;8100;50.994;4.538;2023-08-01T14:12:58;20.60;99.90
15991;DHT22;8100;50.994;4.538;2023-08-01T14:15:47;20.70;99.90
15991;DHT22;8100;50.994;4.538;2023-08-01T14:18:34;20.40;99.90
15991;DHT22;8100;50.994;4.538;2023-08-01T14:21:21;20.20;99.90
15991;DHT22;8100;50.994;4.538;2023-08-01T14:24:09;20.00;99.90
15991;DHT22;8100;50.994;4.538;2023-08-01T14:26:56;19.90;99.90
15991;DHT22;8100;50.994;4.538;2023-08-01T14:29:43;19.70;99.90
15991;DHT22;8100;50.994;4.538;2023-08-01T14:32:32;19.60;99.90
15991;DHT22;8100;50.994;4.538;2023-08-01T14:35:19;19.40;99.90
15991;DHT22;8100;50.994;4.538;2023-08-01T14:38:07;19.30;99.90
15991;DHT22;8100;50.994;4.538;2023-08-01T14:40:54;19.20;99.90
15991;DHT22;8100;50.994;4.538;2023-08-01T14:43:41;18.90;99.90
15991;DHT22;8100;50.994;4.538;2023-08-01T14:46:30;18.70;99.90
15991;DHT22;8100;50.994;4.538;2023-08-01T14:49:22;18.90;99.90
15991;DHT22;8100;50.994;4.538;2023-08-01T14:52:09;19.10;99.90
15991;DHT22;8100;50.994;4.538;2023-08-01T14:54:56;19.20;99.90
15991;DHT22;8100;50.994;4.538;2023-08-01T14:57:44;19.30;99.90
15991;DHT22;8100;50.994;4.538;2023-08-01T15:00:34;19.60;99.90
15991;DHT22;8100;50.994;4.538;2023-08-01T15:03:22;19.70;99.90
15991;DHT22;8100;50.994;4.538;2023-08-01T15:06:10;19.60;99.90
15991;DHT22;8100;50.994;4.538;2023-08-01T15:08:58;19.60;99.90
15991;DHT22;8100;50.994;4.538;2023-08-01T15:11:46;19.60;99.90
15991;DHT22;8100;50.994;4.538;2023-08-01T15:14:33;19.50;99.90
15991;DHT22;8100;50.994;4.538;2023-08-01T15:17:20;19.50;99.90
15991;DHT22;8100;50.994;4.538;2023-08-01T15:20:09;19.40;99.90
15991;DHT22;8100;50.994;4.538;2023-08-01T15:22:58;19.50;99.90
15991;DHT22;8100;50.994;4.538;2023-08-01T15:25:52;19.50;99.90
15991;DHT22;8100;50.994;4.538;2023-08-01T15:28:39;19.40;99.90
15991;DHT22;8100;50.994;4.538;2023-08-01T15:31:26;19.30;99.90
15991;DHT22;8100;50.994;4.538;2023-08-01T15:34:14;19.20;99.90
15991;DHT22;8100;50.994;4.538;2023-08-01T15:37:01;19.20;99.90
15991;DHT22;8100;50.994;4.538;2023-08-01T15:39:50;19.30;99.90
15991;DHT22;8100;50.994;4.538;2023-08-01T15:42:37;19.20;99.90
15991;DHT22;8100;50.994;4.538;2023-08-01T15:45:24;19.30;99.90
15991;DHT22;8100;50.994;4.538;2023-08-01T15:48:12;19.20;99.90
15991;DHT22;8100;50.994;4.538;2023-08-01T15:50:59;19.00;99.90
15991;DHT22;8100;50.994;4.538;2023-08-01T15:53:47;18.90;99.90
15991;DHT22;8100;50.994;4.538;2023-08-01T15:56:36;18.70;99.90
15991;DHT22;8100;50.994;4.538;2023-08-01T15:59:23;18.50;99.90
15991;DHT22;8100;50.994;4.538;2023-08-01T16:02:10;18.50;99.90
15991;DHT22;8100;50.994;4.538;2023-08-01T16:04:57;18.60;99.90
15991;DHT22;8100;50.994;4.538;2023-08-01T16:07:45;18.60;99.90
15991;DHT22;8100;50.994;4.538;2023-08-01T16:10:33;18.70;99.90
15991;DHT22;8100;50.994;4.538;2023-08-01T16:13:22;18.70;99.90
15991;DHT22;8100;50.994;4.538;2023-08-01T16:16:09;18.80;99.90
15991;DHT22;8100;50.994;4.538;2023-08-01T16:18:56;18.70;99.90
15991;DHT22;8100;50.994;4.538;2023-08-01T16:21:43;18.70;99.90
15991;DHT22;8100;50.994;4.538;2023-08-01T16:24:31;18.80;99.90
15991;DHT22;8100;50.994;4.538;2023-08-01T16:27:18;18.90;99.90
15991;DHT22;8100;50.994;4.538;2023-08-01T16:30:08;18.90;99.90
15991;DHT22;8100;50.994;4.538;2023-08-01T16:32:56;18.80;99.90
15991;DHT22;8100;50.994;4.538;2023-08-01T16:35:43;18.70;99.90
15991;DHT22;8100;50.994;4.538;2023-08-01T16:38:31;18.50;99.90
15991;DHT22;8100;50.994;4.538;2023-08-01T16:41:18;18.50;99.90
15991;DHT22;8100;50.994;4.538;2023-08-01T16:44:08;18.40;99.90
15991;DHT22;8100;50.994;4.538;2023-08-01T16:46:56;18.40;99.90
15991;DHT22;8100;50.994;4.538;2023-08-01T16:49:46;18.30;99.90
15991;DHT22;8100;50.994;4.538;2023-08-01T16:52:33;18.20;99.90
15991;DHT22;8100;50.994;4.538;2023-08-01T16:55:21;18.10;99.90
15991;DHT22;8100;50.994;4.538;2023-08-01T16:58:08;17.80;99.90
15991;DHT22;8100;50.994;4.538;2023-08-01T17:00:55;17.50;99.90
15991;DHT22;8100;50.994;4.538;2023-08-01T17:03:44;17.40;99.90
15991;DHT22;8100;50.994;4.538;2023-08-01T17:06:31;17.20;99.90
15991;DHT22;8100;50.994;4.538;2023-08-01T17:09:18;16.90;99.90
15991;DHT22;8100;50.994;4.538;2023-08-01T17:12:07;16.40;99.90
15991;DHT22;8100;50.994;4.538;2023-08-01T17:14:55;16.70;99.90
15991;DHT22;8100;50.994;4.538;2023-08-01T17:17:42;16.10;99.90
15991;DHT22;8100;50.994;4.538;2023-08-01T17:20:34;17.10;99.90
15991;DHT22;8100;50.994;4.538;2023-08-01T17:23:22;17.20;99.90
15991;DHT22;8100;50.994;4.538;2023-08-01T17:26:09;17.10;99.90
15991;DHT22;8100;50.994;4.538;2023-08-01T17:28:57;17.10;99.90
15991;DHT22;8100;50.994;4.538;2023-08-01T17:31:47;17.50;99.90
15991;DHT22;8100;50.994;4.538;2023-08-01T17:34:34;17.60;99.90
15991;DHT22;8100;50.994;4.538;2023-08-01T17:37:23;17.70;99.90
15991;DHT22;8100;50.994;4.538;2023-08-01T17:40:11;17.20;99.90
15991;DHT22;8100;50.994;4.538;2023-08-01T17:42:58;16.90;99.90
15991;DHT22;8100;50.994;4.538;2023-08-01T17:45:46;17.00;99.90
15991;DHT22;8100;50.994;4.538;2023-08-01T17:48:34;16.70;99.90
15991;DHT22;8100;50.994;4.538;2023-08-01T17:51:22;17.30;99.90
15991;DHT22;8100;50.994;4.538;2023-08-01T17:54:11;17.10;99.90
15991;DHT22;8100;50.994;4.538;2023-08-01T17:56:59;17.20;99.90
15991;DHT22;8100;50.994;4.538;2023-08-01T17:59:46;17.60;99.90